Time;durP1;ratioP1;P1;durP2;ratioP2;P2;SDS_P1;SDS_P2;PMS_P1;PMS_P2;Temp;Humidity;BMP_temperature;BMP_pressure;BME280_temperature;BME280_humidity;BME280_pressure;Samples;Min_cycle;Max_cycle;Signal;HPM_P1;HPM_P2
2021/01/14 00:01:16;;;;;;;;;;;;;;;15.44;58.78;101778.34;4954298;29;946;-68
2021/01/14 00:03:43;;;;;;;;;;;;;;;15.41;58.64;101771.38;4954196;29;1297;-68
2021/01/14 00:06:09;;;;;;;;;;;;;;;15.43;59.12;101766.09;4937069;29;1094;-68
2021/01/14 00:08:36;;;;;;;;;;;;;;;15.42;59.09;101764.38;4954456;29;1996;-69
2021/01/14 00:11:02;;;;;;;;;;;;;;;15.38;58.73;101760.97;4937268;29;1130;-69
2021/01/14 00:13:28;;;;;;;;;;;;;;;15.38;58.79;101758.34;4937133;29;1281;-69
2021/01/14 00:15:55;;;;;;;;;;;;;;;15.35;58.90;101747.91;4954246;29;1010;-70
2021/01/14 00:18:21;;;;;;;;;;;;;;;15.32;58.91;101745.38;4953938;29;1273;-69
2021/01/14 00:20:47;;;;;;;;;;;;;;;15.33;59.00;101749.75;4953845;29;1041;-69
2021/01/14 00:23:13;;;;;;;;;;;;;;;15.36;58.92;101748.78;4953785;28;1522;-68
2021/01/14 00:25:40;;;;;;;;;;;;;;;15.36;59.10;101749.66;4952841;28;864;-68
2021/01/14 00:28:06;;;;;;;;;;;;;;;15.31;58.83;101751.56;4953621;29;1206;-69
2021/01/14 00:30:32;;;;;;;;;;;;;;;15.35;58.84;101744.47;4953611;29;1976;-69
2021/01/14 00:32:59;;;;;;;;;;;;;;;15.27;58.98;101734.16;4936426;29;1285;-67
2021/01/14 00:35:29;;;;;;;;;;;;;;;15.27;58.86;101721.91;4953564;29;764;-68
2021/01/14 00:37:55;;;;;;;;;;;;;;;15.25;58.98;101722.84;4954201;29;1365;-68
2021/01/14 00:40:22;;;;;;;;;;;;;;;15.24;58.84;101710.63;4953166;29;804;-68
2021/01/14 00:43:15;;;;;;;;;;;;;;;15.23;58.84;101715.00;4946548;23;1610;-68
2021/01/14 00:45:49;;;;;;;;;;;;;;;15.23;58.86;101708.88;4955326;28;956;-69
2021/01/14 00:48:19;;;;;;;;;;;;;;;15.22;58.73;101707.19;4972063;28;1344;-68
2021/01/14 00:50:45;;;;;;;;;;;;;;;15.18;58.88;101698.53;4972150;28;1967;-69
2021/01/14 00:53:12;;;;;;;;;;;;;;;15.21;58.74;101718.56;4955337;28;1328;-69
2021/01/14 00:55:38;;;;;;;;;;;;;;;15.22;59.04;101712.44;4972276;28;865;-69
2021/01/14 00:58:05;;;;;;;;;;;;;;;15.21;58.75;101721.19;4955080;28;1424;-67
2021/01/14 01:00:31;;;;;;;;;;;;;;;15.18;58.89;101727.38;4972724;28;795;-70
2021/01/14 01:02:59;;;;;;;;;;;;;;;15.18;58.97;101724.75;4955280;28;1390;-70
2021/01/14 01:05:25;;;;;;;;;;;;;;;15.16;58.89;101725.72;4972300;28;760;-70
2021/01/14 01:07:59;;;;;;;;;;;;;;;15.16;58.82;101730.97;4970576;28;1261;-70
2021/01/14 01:10:26;;;;;;;;;;;;;;;15.18;59.30;101727.38;4954679;28;1965;-68
2021/01/14 01:12:53;;;;;;;;;;;;;;;15.15;58.70;101722.22;4954569;28;1265;-69
2021/01/14 01:15:20;;;;;;;;;;;;;;;15.13;58.73;101725.78;4971856;28;767;-67
2021/01/14 01:17:46;;;;;;;;;;;;;;;15.14;58.99;101727.50;4971997;28;1281;-69
2021/01/14 01:20:12;;;;;;;;;;;;;;;15.12;58.94;101730.19;4972071;28;780;-71
2021/01/14 01:22:38;;;;;;;;;;;;;;;15.06;58.87;101714.59;4972391;28;1375;-70
2021/01/14 01:25:05;;;;;;;;;;;;;;;15.12;58.71;101729.31;4972160;28;788;-70
2021/01/14 01:27:32;;;;;;;;;;;;;;;15.12;58.68;101721.44;4954696;28;1383;-69
2021/01/14 01:29:58;;;;;;;;;;;;;;;15.10;58.71;101724.13;4970087;28;1903;-69
2021/01/14 01:32:24;;;;;;;;;;;;;;;15.08;58.69;101719.78;4954365;28;1518;-69
2021/01/14 01:34:50;;;;;;;;;;;;;;;15.07;58.88;101710.22;4971665;28;732;-69
2021/01/14 01:37:17;;;;;;;;;;;;;;;15.06;59.37;101711.09;4969716;28;1245;-67
2021/01/14 01:39:43;;;;;;;;;;;;;;;15.07;58.93;101718.94;4971836;28;830;-68
2021/01/14 01:42:18;;;;;;;;;;;;;;;15.06;58.72;101711.09;4970021;28;1320;-67
2021/01/14 01:44:45;;;;;;;;;;;;;;;15.05;58.89;101707.63;4971605;28;1577;-67
2021/01/14 01:47:11;;;;;;;;;;;;;;;15.05;58.91;101717.25;4971265;28;1194;-67
2021/01/14 01:49:42;;;;;;;;;;;;;;;15.07;58.73;101725.97;4954574;28;1983;-69
2021/01/14 01:52:08;;;;;;;;;;;;;;;15.05;58.86;101714.63;4954305;28;1336;-67
2021/01/14 01:54:35;;;;;;;;;;;;;;;15.04;58.96;101720.78;4971729;28;943;-68
2021/01/14 01:57:03;;;;;;;;;;;;;;;15.05;59.10;101723.34;4971047;28;1257;-68
2021/01/14 01:59:30;;;;;;;;;;;;;;;15.03;58.85;101726.94;4970973;28;858;-70
2021/01/14 02:01:56;;;;;;;;;;;;;;;15.03;59.16;101735.66;4970988;28;1028;-68
2021/01/14 02:04:22;;;;;;;;;;;;;;;15.00;59.22;101725.25;4953640;28;1265;-70
2021/01/14 02:07:05;;;;;;;;;;;;;;;15.00;59.14;101721.75;4953065;28;1068;-70
2021/01/14 02:09:34;;;;;;;;;;;;;;;15.00;59.15;101720.00;4953530;28;1919;-74
2021/01/14 02:12:04;;;;;;;;;;;;;;;15.01;59.04;101721.75;4971461;28;1297;-72
2021/01/14 02:14:33;;;;;;;;;;;;;;;15.00;58.97;101729.63;4970667;28;850;-72
2021/01/14 02:17:00;;;;;;;;;;;;;;;15.00;59.16;101724.38;4953129;28;1899;-71
2021/01/14 02:19:36;;;;;;;;;;;;;;;14.98;59.19;101716.56;4953782;28;1325;-71
2021/01/14 02:22:11;;;;;;;;;;;;;;;14.97;59.17;101727.09;4953826;28;1401;-73
2021/01/14 02:24:43;;;;;;;;;;;;;;;14.98;59.04;101742.81;4953540;28;1264;-72
2021/01/14 02:27:12;;;;;;;;;;;;;;;14.96;58.84;101741.09;4953344;28;1269;-71
2021/01/14 02:29:40;;;;;;;;;;;;;;;14.96;58.75;101735.84;4970691;28;1907;-73
2021/01/14 02:32:16;;;;;;;;;;;;;;;14.94;59.49;101724.53;4970147;28;1383;-72
2021/01/14 02:34:48;;;;;;;;;;;;;;;14.96;58.88;101728.84;4953111;28;867;-73
2021/01/14 02:37:15;;;;;;;;;;;;;;;14.93;59.27;101713.19;4970658;28;1396;-72
2021/01/14 02:39:44;;;;;;;;;;;;;;;14.90;59.27;101721.13;4970408;28;1164;-73
2021/01/14 02:42:10;;;;;;;;;;;;;;;14.92;59.09;101718.47;4968767;28;1458;-73
2021/01/14 02:44:36;;;;;;;;;;;;;;;14.91;59.09;101720.25;4970836;28;1524;-73
2021/01/14 02:47:03;;;;;;;;;;;;;;;14.91;59.10;101729.88;4970398;28;1261;-74
2021/01/14 02:49:32;;;;;;;;;;;;;;;14.90;58.92;101734.25;4951959;28;1914;-73
2021/01/14 02:52:01;;;;;;;;;;;;;;;14.89;58.89;101731.69;4969936;28;1055;-72
2021/01/14 02:54:28;;;;;;;;;;;;;;;14.90;58.91;101730.75;4952111;28;1556;-72
2021/01/14 02:56:57;;;;;;;;;;;;;;;14.88;59.30;101725.56;4952701;28;1130;-73
2021/01/14 02:59:25;;;;;;;;;;;;;;;14.87;59.05;101718.59;4969827;28;1229;-72
2021/01/14 03:01:52;;;;;;;;;;;;;;;14.87;59.10;101715.09;4970242;28;1122;-72
2021/01/14 03:04:18;;;;;;;;;;;;;;;14.86;59.06;101716.03;4970248;28;1218;-72
2021/01/14 03:06:44;;;;;;;;;;;;;;;14.89;59.27;101706.31;4969596;28;1061;-73
2021/01/14 03:09:11;;;;;;;;;;;;;;;14.85;59.00;101709.03;4952189;28;1910;-72
2021/01/14 03:11:37;;;;;;;;;;;;;;;14.84;59.14;101697.69;4970045;28;796;-73
2021/01/14 03:14:03;;;;;;;;;;;;;;;14.83;58.99;101688.13;4952303;28;1353;-71
2021/01/14 03:16:35;;;;;;;;;;;;;;;14.80;59.11;101676.84;4970173;28;827;-73
2021/01/14 03:19:01;;;;;;;;;;;;;;;14.82;58.87;101693.38;4970223;28;1261;-73
2021/01/14 03:21:27;;;;;;;;;;;;;;;14.82;58.79;101682.88;4952620;28;1236;-74
2021/01/14 03:23:54;;;;;;;;;;;;;;;14.82;58.96;101670.63;4970383;28;1280;-71
2021/01/14 03:26:20;;;;;;;;;;;;;;;14.80;58.98;101674.22;4970278;28;850;-71
2021/01/14 03:28:48;;;;;;;;;;;;;;;14.80;58.95;101663.72;4969672;28;1977;-72
2021/01/14 03:31:14;;;;;;;;;;;;;;;14.80;58.91;101658.47;4969658;28;846;-72
2021/01/14 03:33:41;;;;;;;;;;;;;;;14.80;58.89;101659.34;4970210;28;1289;-74
2021/01/14 03:36:08;;;;;;;;;;;;;;;14.78;58.88;101645.38;4969707;28;835;-72
2021/01/14 03:38:38;;;;;;;;;;;;;;;14.79;59.06;101631.38;4969984;28;1353;-73
2021/01/14 03:41:11;;;;;;;;;;;;;;;14.82;58.78;101633.06;4969670;28;1166;-73
2021/01/14 03:43:38;;;;;;;;;;;;;;;14.80;59.05;101627.00;4969554;28;1347;-73
2021/01/14 03:46:08;;;;;;;;;;;;;;;14.81;59.12;101631.31;4968627;28;1267;-73
2021/01/14 03:48:38;;;;;;;;;;;;;;;14.78;58.87;101624.41;4969910;28;1268;-73
2021/01/14 03:51:12;;;;;;;;;;;;;;;14.79;59.15;101636.63;4952641;28;1907;-73
2021/01/14 03:53:38;;;;;;;;;;;;;;;14.80;58.95;101622.63;4952370;28;1265;-73
2021/01/14 03:56:04;;;;;;;;;;;;;;;14.81;58.80;101629.56;4967640;28;1509;-74
2021/01/14 03:58:31;;;;;;;;;;;;;;;14.74;58.81;101618.38;4970098;28;1359;-73
2021/01/14 04:00:57;;;;;;;;;;;;;;;14.74;58.88;101617.53;4973397;28;871;-74
2021/01/14 04:03:24;;;;;;;;;;;;;;;14.75;58.71;101617.47;4955150;28;1340;-74
2021/01/14 04:05:51;;;;;;;;;;;;;;;14.77;59.05;101627.94;4972988;28;783;-73
2021/01/14 04:08:17;;;;;;;;;;;;;;;14.73;58.93;101606.19;4974156;28;1308;-73
2021/01/14 04:10:44;;;;;;;;;;;;;;;14.73;58.49;101627.16;4972332;28;1997;-73
2021/01/14 04:13:10;;;;;;;;;;;;;;;14.78;58.67;101620.00;4955487;28;1261;-73
2021/01/14 04:15:37;;;;;;;;;;;;;;;14.74;58.39;101607.03;4973278;28;795;-73
2021/01/14 04:18:03;;;;;;;;;;;;;;;14.71;58.90;101618.44;4955581;28;1317;-73
2021/01/14 04:20:29;;;;;;;;;;;;;;;14.71;58.90;101605.34;4971632;28;870;-72
2021/01/14 04:22:55;;;;;;;;;;;;;;;14.74;58.40;101602.63;4971652;28;1344;-72
2021/01/14 04:25:30;;;;;;;;;;;;;;;14.70;58.34;101611.50;4972918;28;855;-74
2021/01/14 04:27:57;;;;;;;;;;;;;;;14.72;58.76;101612.31;4955328;28;1249;-71
2021/01/14 04:30:24;;;;;;;;;;;;;;;14.71;58.85;101615.81;4972591;28;1915;-72
2021/01/14 04:32:58;;;;;;;;;;;;;;;14.72;58.29;101619.31;4955737;28;1370;-72
2021/01/14 04:35:28;;;;;;;;;;;;;;;14.71;58.45;101618.44;4954521;28;1894;-72
2021/01/14 04:37:54;;;;;;;;;;;;;;;14.69;58.58;101614.16;4972517;28;1359;-73
2021/01/14 04:40:20;;;;;;;;;;;;;;;14.66;58.51;101607.22;4972659;28;1132;-72
2021/01/14 04:42:48;;;;;;;;;;;;;;;14.69;58.35;101615.00;4972400;28;1287;-72
2021/01/14 04:45:15;;;;;;;;;;;;;;;14.69;58.38;101599.28;4972826;28;716;-71
2021/01/14 04:47:45;;;;;;;;;;;;;;;14.67;58.70;101611.59;4951492;29;1233;-73
2021/01/14 04:50:13;;;;;;;;;;;;;;;14.69;58.25;101607.16;4953141;29;1907;-72
2021/01/14 04:52:41;;;;;;;;;;;;;;;14.65;58.15;101613.38;4953300;29;1368;-73
2021/01/14 04:55:13;;;;;;;;;;;;;;;14.64;58.36;101610.81;4952948;29;922;-73
2021/01/14 04:57:44;;;;;;;;;;;;;;;14.61;58.52;101606.50;4953088;29;1323;-72
2021/01/14 05:00:12;;;;;;;;;;;;;;;14.65;58.51;101608.13;4951871;29;764;-73
2021/01/14 05:02:50;;;;;;;;;;;;;;;14.66;58.67;101609.84;4953533;29;1384;-73
2021/01/14 05:05:20;;;;;;;;;;;;;;;14.62;58.30;101602.13;4971237;28;757;-72
2021/01/14 05:07:54;;;;;;;;;;;;;;;14.63;58.05;101602.06;4972161;28;1233;-73
2021/01/14 05:10:23;;;;;;;;;;;;;;;14.60;58.01;101620.50;4971973;28;1910;-73
2021/01/14 05:12:55;;;;;;;;;;;;;;;14.59;58.42;101616.16;4951439;28;1565;-73
2021/01/14 05:15:23;;;;;;;;;;;;;;;14.59;58.29;101597.78;4972064;28;1491;-73
2021/01/14 05:17:49;;;;;;;;;;;;;;;14.56;58.32;101597.88;4955063;28;1370;-74
2021/01/14 05:20:15;;;;;;;;;;;;;;;14.54;58.35;101610.16;4954924;28;1203;-74
2021/01/14 05:22:44;;;;;;;;;;;;;;;14.56;58.24;101618.00;4972606;28;1351;-74
2021/01/14 05:25:10;;;;;;;;;;;;;;;14.57;58.31;101609.22;4970437;28;1037;-72
2021/01/14 05:27:37;;;;;;;;;;;;;;;14.56;58.31;101602.28;4954013;28;1269;-72
2021/01/14 05:30:04;;;;;;;;;;;;;;;14.55;58.43;101598.78;4971069;28;1911;-73
2021/01/14 05:32:37;;;;;;;;;;;;;;;14.55;58.18;101590.06;4971386;28;1281;-72
2021/01/14 05:35:06;;;;;;;;;;;;;;;14.56;58.40;101587.38;4971672;28;784;-74
2021/01/14 05:37:36;;;;;;;;;;;;;;;14.54;58.42;101593.56;4953905;28;1351;-73
2021/01/14 05:40:03;;;;;;;;;;;;;;;14.56;58.22;101597.03;4971408;28;827;-73
2021/01/14 05:42:30;;;;;;;;;;;;;;;14.53;58.73;101587.47;4953648;28;1265;-72
2021/01/14 05:44:58;;;;;;;;;;;;;;;14.56;58.42;101603.13;4971156;28;966;-72
2021/01/14 05:47:25;;;;;;;;;;;;;;;14.57;58.23;101594.34;4953925;28;1314;-72
2021/01/14 05:50:02;;;;;;;;;;;;;;;14.54;58.20;101599.69;4971434;28;1902;-74
2021/01/14 05:52:31;;;;;;;;;;;;;;;14.54;58.18;101602.31;4971388;28;1378;-72
2021/01/14 05:55:26;;;;;;;;;;;;;;;14.52;58.62;101585.75;4956555;28;1201;-72
2021/01/14 05:58:02;;;;;;;;;;;;;;;14.51;58.32;101599.75;4953744;28;1330;-73
2021/01/14 06:00:33;;;;;;;;;;;;;;;14.54;58.08;101604.94;4970815;28;1087;-74
2021/01/14 06:03:19;;;;;;;;;;;;;;;14.49;58.01;101596.34;4969613;28;1396;-74
2021/01/14 06:05:45;;;;;;;;;;;;;;;14.52;58.59;101582.28;4950161;29;1636;-72
2021/01/14 06:08:18;;;;;;;;;;;;;;;14.53;58.47;101587.47;4952121;29;1360;-73
2021/01/14 06:10:45;;;;;;;;;;;;;;;14.53;58.25;101587.47;4935031;29;1931;-72
2021/01/14 06:13:11;;;;;;;;;;;;;;;14.50;58.39;101598.03;4951694;29;1354;-73
2021/01/14 06:15:38;;;;;;;;;;;;;;;14.51;58.16;101601.53;4950277;29;788;-74
2021/01/14 06:18:08;;;;;;;;;;;;;;;14.49;58.40;101598.97;4918560;29;1332;-74
2021/01/14 06:20:35;;;;;;;;;;;;;;;14.41;58.55;101586.94;4949983;29;1250;-72
2021/01/14 06:23:01;;;;;;;;;;;;;;;14.50;58.54;101582.31;4950665;28;1331;-74
2021/01/14 06:25:28;;;;;;;;;;;;;;;14.50;58.28;101589.34;4951748;29;1103;-73
2021/01/14 06:28:04;;;;;;;;;;;;;;;14.48;58.16;101593.72;4951349;29;1260;-72
2021/01/14 06:31:47;;;;;;;;;;;;;;;;;;;;;
2021/01/14 06:35:48;;;;;;;;;;;;;;;;;;;;;
2021/01/14 06:47:20;;;;;;;;;;;;;;;14.52;60.44;101613.75;4946088;23;2804;-71
2021/01/14 06:49:55;;;;;;;;;;;;;;;14.56;59.64;101613.59;4970317;28;1906;-72
2021/01/14 06:59:36;;;;;;;;;;;;;;;14.48;58.90;101620.81;4966209;23;2087;-72
2021/01/14 07:02:05;;;;;;;;;;;;;;;14.46;58.86;101629.63;4951056;29;1268;-72
2021/01/14 07:04:36;;;;;;;;;;;;;;;14.40;58.87;101633.28;4951378;29;767;-73
2021/01/14 07:07:15;;;;;;;;;;;;;;;14.38;58.73;101627.19;4950725;29;1249;-73
2021/01/14 07:10:00;;;;;;;;;;;;;;;14.42;58.82;101625.34;4949412;29;1927;-74
2021/01/14 07:12:27;;;;;;;;;;;;;;;14.41;58.98;101624.47;4950723;29;1303;-72
2021/01/14 07:15:22;;;;;;;;;;;;;;;14.41;58.64;101610.53;4950347;29;791;-73
2021/01/14 07:18:17;;;;;;;;;;;;;;;14.38;58.85;101608.84;4946641;29;1293;-71
2021/01/14 07:20:44;;;;;;;;;;;;;;;14.40;58.68;101607.06;4949031;29;1293;-72
2021/01/14 07:23:11;;;;;;;;;;;;;;;14.37;58.91;101612.38;4950551;29;1272;-73
2021/01/14 07:25:38;;;;;;;;;;;;;;;14.42;60.05;101605.25;4950290;29;808;-73
2021/01/14 07:28:44;;;;;;;;;;;;;;;14.48;59.09;101615.56;4950622;29;1252;-75
2021/01/14 07:34:56;;;;;;;;;;;;;;;14.38;58.69;101618.47;5026816;23;1918;-74
2021/01/14 07:38:36;;;;;;;;;;;;;;;14.32;58.90;101614.19;4838097;29;1679;-74
2021/01/14 07:41:15;;;;;;;;;;;;;;;;;;;;;
2021/01/14 07:47:48;;;;;;;;;;;;;;;14.40;58.20;101614.06;4856074;29;1798;-71
2021/01/14 07:50:24;;;;;;;;;;;;;;;14.36;58.31;101626.38;4867187;29;1990;-72
2021/01/14 07:52:57;;;;;;;;;;;;;;;14.40;59.68;101621.91;4893977;29;1301;-71
2021/01/14 07:55:40;;;;;;;;;;;;;;;14.54;58.99;101620.66;4893546;29;1246;-68
2021/01/14 07:58:19;;;;;;;;;;;;;;;14.40;59.16;101632.41;4893425;29;1306;-72
2021/01/14 08:01:01;;;;;;;;;;;;;;;14.65;60.03;101636.13;4877989;29;2081;-71
2021/01/14 08:03:30;;;;;;;;;;;;;;;14.70;59.34;101639.47;4893679;29;1304;-71
2021/01/14 08:05:56;;;;;;;;;;;;;;;14.73;59.00;101637.66;4893985;29;1058;-70
2021/01/14 08:08:26;;;;;;;;;;;;;;;14.87;59.41;101633.78;4896727;29;1233;-70
2021/01/14 08:11:24;;;;;;;;;;;;;;;15.10;58.97;101631.41;4934112;29;1931;-69
2021/01/14 08:14:03;;;;;;;;;;;;;;;15.26;58.28;101644.03;4901577;29;1305;-70
2021/01/14 08:17:04;;;;;;;;;;;;;;;15.45;57.92;101644.38;4934458;29;1067;-72
2021/01/14 08:19:58;;;;;;;;;;;;;;;15.69;57.43;101643.69;4930289;26;1962;-71
2021/01/14 08:22:27;;;;;;;;;;;;;;;15.87;57.16;101651.94;4940863;28;1935;-69
2021/01/14 08:28:35;;;;;;;;;;;;;;;16.07;56.70;101654.78;4852875;29;1262;-73
2021/01/14 08:31:36;;;;;;;;;;;;;;;16.13;56.57;101650.19;4811480;29;1969;-69
2021/01/14 08:34:14;;;;;;;;;;;;;;;16.18;56.60;101650.03;4853562;29;1294;-69
2021/01/14 08:36:44;;;;;;;;;;;;;;;16.25;56.46;101655.06;4823753;29;1410;-72
2021/01/14 08:39:17;;;;;;;;;;;;;;;16.30;56.29;101652.28;4854666;29;1325;-72
2021/01/14 08:42:17;;;;;;;;;;;;;;;16.32;56.31;101667.06;4854973;29;1221;-72
2021/01/14 08:44:52;;;;;;;;;;;;;;;16.34;56.24;101659.16;4838659;29;1236;-70
2021/01/14 08:47:19;;;;;;;;;;;;;;;16.41;56.08;101666.78;4853196;29;1164;-76
2021/01/14 08:49:46;;;;;;;;;;;;;;;16.50;56.23;101668.28;4837678;29;1990;-69
2021/01/14 08:52:14;;;;;;;;;;;;;;;16.49;56.66;101673.56;4854605;29;1172;-69
2021/01/14 08:54:44;;;;;;;;;;;;;;;16.51;56.35;101672.59;4854345;29;1314;-70
2021/01/14 08:57:12;;;;;;;;;;;;;;;16.49;55.84;101674.44;4854333;29;1290;-73
2021/01/14 08:59:40;;;;;;;;;;;;;;;16.49;56.18;101674.44;4838601;29;1562;-68
2021/01/14 09:02:06;;;;;;;;;;;;;;;16.44;55.93;101667.63;4863622;29;1302;-69
2021/01/14 09:04:32;;;;;;;;;;;;;;;16.41;56.35;101672.03;4878703;29;1428;-69
2021/01/14 09:06:58;;;;;;;;;;;;;;;16.44;56.29;101670.25;4874792;29;1123;-70
2021/01/14 09:09:25;;;;;;;;;;;;;;;16.52;56.16;101671.69;4912452;29;1902;-70
2021/01/14 09:11:51;;;;;;;;;;;;;;;16.46;56.07;101665.78;4962970;28;1067;-70
2021/01/14 09:14:18;;;;;;;;;;;;;;;16.42;56.26;101668.50;4970858;28;1213;-70
2021/01/14 09:16:48;;;;;;;;;;;;;;;16.41;55.98;101663.31;4966047;28;1520;-71
2021/01/14 09:19:18;;;;;;;;;;;;;;;16.40;55.97;101666.84;4933504;29;1311;-70
2021/01/14 09:21:45;;;;;;;;;;;;;;;16.41;56.08;101651.00;4950666;28;1382;-70
2021/01/14 09:24:12;;;;;;;;;;;;;;;16.42;56.32;101655.38;4951151;28;1178;-70
2021/01/14 09:26:40;;;;;;;;;;;;;;;16.44;56.76;101655.31;4934049;29;998;-69
2021/01/14 09:29:07;;;;;;;;;;;;;;;16.47;57.29;101660.50;4950919;28;1276;-71
2021/01/14 09:35:21;;;;;;;;;;;;;;;16.50;56.82;101660.38;4878454;29;1219;-74
2021/01/14 09:38:11;;;;;;;;;;;;;;;16.54;56.68;101669.00;4895338;29;1456;-71
2021/01/14 09:41:29;;;;;;;;;;;;;;;16.58;56.52;101673.28;4896574;29;1175;-72
2021/01/14 09:48:54;;;;;;;;;;;;;;;16.63;56.73;101672.22;4907765;29;1352;-73
2021/01/14 09:56:04;;;;;;;;;;;;;;;16.61;57.66;101684.59;4879847;29;2521;-72
2021/01/14 09:58:45;;;;;;;;;;;;;;;16.66;57.28;101684.41;4912737;29;1674;-69
2021/01/14 10:05:30;;;;;;;;;;;;;;;16.65;56.58;101683.59;4853934;29;1237;-71
2021/01/14 10:17:34;;;;;;;;;;;;;;;16.73;56.45;101689.44;4905658;29;1417;-68
2021/01/14 10:20:05;;;;;;;;;;;;;;;16.72;56.54;101682.44;4912211;29;1259;-69
2021/01/14 10:22:34;;;;;;;;;;;;;;;16.73;56.09;101692.06;4911954;29;1309;-68
2021/01/14 10:25:08;;;;;;;;;;;;;;;16.71;56.25;101688.63;4911727;29;791;-70
2021/01/14 10:27:35;;;;;;;;;;;;;;;16.75;56.27;101681.47;4911781;29;1270;-69
2021/01/14 10:30:17;;;;;;;;;;;;;;;16.76;56.51;101684.06;4910615;29;1931;-71
2021/01/14 10:32:44;;;;;;;;;;;;;;;16.77;55.99;101677.03;4910047;29;1281;-69
2021/01/14 10:35:21;;;;;;;;;;;;;;;16.76;56.00;101676.19;4909895;29;1303;-71
2021/01/14 10:37:47;;;;;;;;;;;;;;;16.83;56.11;101679.47;4912069;29;1449;-69
2021/01/14 10:40:19;;;;;;;;;;;;;;;16.86;55.55;101668.81;4911872;29;858;-70
2021/01/14 10:42:49;;;;;;;;;;;;;;;16.85;55.43;101667.97;4911945;29;1332;-72
2021/01/14 10:45:26;;;;;;;;;;;;;;;16.81;55.61;101660.25;4910080;29;1219;-69
2021/01/14 10:48:04;;;;;;;;;;;;;;;16.84;55.43;101665.41;4909737;29;1339;-69
2021/01/14 10:50:30;;;;;;;;;;;;;;;16.83;55.57;101664.53;4911303;29;1911;-70
2021/01/14 10:52:58;;;;;;;;;;;;;;;16.84;55.15;101662.78;4911747;29;1261;-70
2021/01/14 10:55:26;;;;;;;;;;;;;;;16.81;55.19;101658.44;4911139;29;1133;-70
2021/01/14 10:58:00;;;;;;;;;;;;;;;16.83;55.17;101655.78;4911063;29;1361;-70
2021/01/14 11:00:28;;;;;;;;;;;;;;;16.83;55.18;101654.00;4911028;29;701;-71
2021/01/14 11:03:02;;;;;;;;;;;;;;;16.82;55.00;101654.91;4911591;29;1285;-70
2021/01/14 11:05:40;;;;;;;;;;;;;;;16.84;55.01;101652.25;4893908;29;1104;-69
2021/01/14 11:08:22;;;;;;;;;;;;;;;16.88;54.98;101651.19;4911222;29;1596;-70
2021/01/14 11:11:03;;;;;;;;;;;;;;;16.87;54.89;101650.34;4909402;29;1978;-69
2021/01/14 11:13:35;;;;;;;;;;;;;;;16.94;56.12;101643.97;4910189;29;1533;-71
2021/01/14 11:16:03;;;;;;;;;;;;;;;16.89;54.51;101638.00;4910940;29;1251;-69
2021/01/14 11:18:30;;;;;;;;;;;;;;;16.91;54.65;101638.81;4911308;29;1309;-72
2021/01/14 11:20:56;;;;;;;;;;;;;;;16.93;54.82;101639.59;4909801;29;942;-72
2021/01/14 11:23:22;;;;;;;;;;;;;;;16.98;55.03;101635.94;4909630;29;1246;-72
2021/01/14 11:25:48;;;;;;;;;;;;;;;16.95;55.10;101639.56;4893458;29;1352;-71
2021/01/14 11:28:15;;;;;;;;;;;;;;;16.97;54.95;101629.81;4910501;29;1231;-73
2021/01/14 11:30:41;;;;;;;;;;;;;;;16.97;54.86;101628.97;4916827;29;1907;-74
2021/01/14 11:33:07;;;;;;;;;;;;;;;16.94;54.97;101620.28;4891868;29;1237;-73
2021/01/14 11:35:33;;;;;;;;;;;;;;;16.92;56.01;101608.94;4892552;29;796;-75
2021/01/14 11:38:00;;;;;;;;;;;;;;;16.94;55.62;101620.28;4892479;29;1297;-76
2021/01/14 11:40:27;;;;;;;;;;;;;;;16.96;55.67;101614.09;4892517;29;749;-73
2021/01/14 11:42:53;;;;;;;;;;;;;;;16.94;55.43;101607.13;4875095;29;1320;-72
2021/01/14 11:45:19;;;;;;;;;;;;;;;17.02;56.38;101608.63;4902482;29;1079;-68
2021/01/14 11:47:46;;;;;;;;;;;;;;;16.94;55.40;101609.75;4911000;29;1361;-68
2021/01/14 11:58:18;;;;;;;;;;;;;;;;;;;;;
2021/01/14 12:01:21;;;;;;;;;;;;;;;16.94;56.06;101577.28;4913819;29;1479;-68
2021/01/14 12:03:47;;;;;;;;;;;;;;;16.91;56.29;101574.78;4930035;29;1278;-68
2021/01/14 12:06:14;;;;;;;;;;;;;;;16.88;56.50;101567.84;4929807;29;808;-69
2021/01/14 12:08:40;;;;;;;;;;;;;;;16.87;56.41;101575.81;4912671;29;1307;-68
2021/01/14 12:11:08;;;;;;;;;;;;;;;16.88;56.31;101567.84;4912386;29;1915;-68
2021/01/14 12:13:37;;;;;;;;;;;;;;;16.87;55.78;101558.22;4929651;29;1289;-69
2021/01/14 12:16:03;;;;;;;;;;;;;;;16.91;55.53;101549.31;4929141;29;1040;-67
2021/01/14 12:18:29;;;;;;;;;;;;;;;16.89;55.21;101547.66;4929822;29;1379;-69
2021/01/14 12:21:01;;;;;;;;;;;;;;;16.86;54.98;101540.75;4929563;29;1356;-69
2021/01/14 12:23:28;;;;;;;;;;;;;;;16.85;54.38;101543.41;4932634;29;1420;-64
2021/01/14 12:25:54;;;;;;;;;;;;;;;16.86;53.42;101538.13;4933593;29;792;-69
2021/01/14 12:28:20;;;;;;;;;;;;;;;16.95;53.01;101536.91;4915524;29;1325;-69
2021/01/14 12:30:46;;;;;;;;;;;;;;;16.87;52.81;101521.38;4915369;29;1910;-67
2021/01/14 12:33:12;;;;;;;;;;;;;;;16.87;52.53;101533.72;4915669;29;1226;-69
2021/01/14 12:35:39;;;;;;;;;;;;;;;16.85;52.45;101523.22;4932666;29;768;-68
2021/01/14 12:38:05;;;;;;;;;;;;;;;16.87;51.54;101516.13;4915256;29;1337;-68
2021/01/14 12:40:31;;;;;;;;;;;;;;;16.83;52.00;101513.69;4915545;29;832;-68
2021/01/14 12:42:59;;;;;;;;;;;;;;;16.84;52.17;101513.59;4932912;29;1298;-69
2021/01/14 12:45:30;;;;;;;;;;;;;;;16.84;51.31;101505.72;4932607;29;827;-68
2021/01/14 12:47:56;;;;;;;;;;;;;;;16.83;50.33;101504.03;4931676;29;1459;-68
2021/01/14 12:50:23;;;;;;;;;;;;;;;16.85;50.56;101499.53;4914556;29;1986;-68
2021/01/14 12:52:49;;;;;;;;;;;;;;;16.94;51.29;101496.56;4915644;29;1321;-66
2021/01/14 12:55:18;;;;;;;;;;;;;;;16.97;50.51;101490.34;4915119;29;1195;-72
2021/01/14 12:57:44;;;;;;;;;;;;;;;16.97;48.98;101489.47;4914850;29;1583;-71
2021/01/14 13:00:12;;;;;;;;;;;;;;;16.92;50.00;101495.78;4932193;29;823;-71
2021/01/14 13:02:41;;;;;;;;;;;;;;;16.94;49.12;101486.03;4930781;29;1367;-69
2021/01/14 13:05:09;;;;;;;;;;;;;;;17.00;48.34;101484.94;4915282;29;816;-71
2021/01/14 13:07:35;;;;;;;;;;;;;;;16.97;49.29;101481.56;4914476;29;1580;-71
2021/01/14 13:10:24;;;;;;;;;;;;;;;17.01;49.50;101483.19;4914669;29;1918;-68
2021/01/14 13:12:49;;;;;;;;;;;;;;;16.96;49.56;101475.47;4932198;29;1642;-68
2021/01/14 13:15:16;;;;;;;;;;;;;;;16.96;48.64;101467.59;4915101;29;1192;-70
2021/01/14 13:17:42;;;;;;;;;;;;;;;17.16;48.84;101467.66;4931899;29;1360;-72
2021/01/14 13:20:09;;;;;;;;;;;;;;;17.12;50.75;101476.56;4914636;29;1077;-71
2021/01/14 13:23:17;;;;;;;;;;;;;;;17.14;51.73;101473.91;4993380;23;1655;-66
2021/01/14 13:29:18;;;;;;;;;;;;;;;17.20;50.82;101468.41;4853154;29;1308;-68
2021/01/14 13:32:00;;;;;;;;;;;;;;;17.14;51.90;101464.25;4914551;29;1972;-68
2021/01/14 13:34:26;;;;;;;;;;;;;;;17.12;51.64;101465.19;4914064;29;757;-68
2021/01/14 13:36:53;;;;;;;;;;;;;;;17.10;51.38;101461.78;4914195;29;1075;-68
2021/01/14 13:39:39;;;;;;;;;;;;;;;17.11;53.66;101474.03;4931459;29;1154;-67
2021/01/14 13:42:05;;;;;;;;;;;;;;;17.08;52.77;101475.00;4915524;29;1320;-69
2021/01/14 13:44:32;;;;;;;;;;;;;;;17.09;52.32;101471.44;4932891;29;771;-71
2021/01/14 13:46:58;;;;;;;;;;;;;;;17.11;51.83;101474.03;4911933;29;1869;-75
2021/01/14 13:49:25;;;;;;;;;;;;;;;17.18;53.18;101476.34;4914404;29;1353;-67
2021/01/14 13:51:51;;;;;;;;;;;;;;;17.15;52.12;101465.06;4931194;29;1914;-67
2021/01/14 13:54:20;;;;;;;;;;;;;;;17.17;52.87;101458.84;4922365;29;1437;-76
2021/01/14 13:56:57;;;;;;;;;;;;;;;17.02;52.60;101458.59;4897327;29;1080;-72
2021/01/14 13:59:26;;;;;;;;;;;;;;;17.00;52.28;101455.13;4894986;29;1270;-70
2021/01/14 14:01:52;;;;;;;;;;;;;;;17.00;52.61;101458.63;4921909;29;1488;-70
2021/01/14 14:04:19;;;;;;;;;;;;;;;17.01;52.39;101456.84;4898114;29;1250;-69
2021/01/14 14:06:45;;;;;;;;;;;;;;;17.05;52.35;101463.72;4898217;29;1084;-71
2021/01/14 14:09:18;;;;;;;;;;;;;;;17.01;52.30;101462.13;4913857;29;1290;-71
2021/01/14 14:12:33;;;;;;;;;;;;;;;17.06;53.14;101463.66;4871600;29;1986;-71
2021/01/14 14:15:44;;;;;;;;;;;;;;;16.73;52.61;101418.44;4834168;29;1507;-71
2021/01/14 14:18:14;;;;;;;;;;;;;;;17.00;52.77;101456.00;4818345;29;1544;-72
2021/01/14 14:20:40;;;;;;;;;;;;;;;17.01;52.90;101460.34;4844931;29;1761;-72